createdAt,value
2022-09-05T00:02:01.624Z,28.90
2022-09-05T00:04:41.067Z,28.90
2022-09-05T00:07:57.681Z,29.00
2022-09-05T00:10:36.193Z,28.90
2022-09-05T00:13:10.046Z,28.90
2022-09-05T00:16:18.311Z,28.90
2022-09-05T00:24:18.730Z,28.90
2022-09-05T00:24:26.948Z,28.90
2022-09-05T00:25:32.016Z,28.90
2022-09-05T00:28:26.810Z,28.90
2022-09-05T00:31:54.248Z,28.90
2022-09-05T00:34:10.482Z,28.90
2022-09-05T00:36:49.734Z,28.90
2022-09-05T00:39:26.086Z,28.90
2022-09-05T00:42:03.719Z,28.90
2022-09-05T00:44:33.493Z,28.90
2022-09-05T00:47:09.215Z,28.90
2022-09-05T00:49:53.046Z,28.90
2022-09-05T00:52:26.678Z,28.90
2022-09-05T00:55:01.787Z,28.90
2022-09-05T00:57:49.781Z,28.90
2022-09-05T01:00:22.226Z,28.90
2022-09-05T01:03:15.592Z,28.90
2022-09-05T01:05:53.477Z,28.90
2022-09-05T01:08:36.782Z,28.90
2022-09-05T01:11:17.789Z,29.00
2022-09-05T01:14:22.693Z,28.90
2022-09-05T01:17:09.865Z,28.90
2022-09-05T01:20:18.618Z,28.90
2022-09-05T01:23:08.271Z,28.90
2022-09-05T01:25:40.487Z,28.90
2022-09-05T01:29:16.180Z,28.90
2022-09-05T01:31:11.286Z,28.90
2022-09-05T01:33:37.406Z,28.90
2022-09-05T01:36:04.539Z,28.90
2022-09-05T01:40:12.499Z,28.90
2022-09-05T01:42:06.557Z,28.90
2022-09-05T01:45:39.378Z,28.90
2022-09-05T01:48:17.941Z,28.90
2022-09-05T01:51:02.786Z,28.90
2022-09-05T01:53:56.365Z,28.90
2022-09-05T01:56:51.834Z,28.90
2022-09-05T01:59:32.505Z,28.90
2022-09-05T02:02:13.397Z,28.90
2022-09-05T02:04:48.511Z,28.90
2022-09-05T02:07:38.989Z,28.90
2022-09-05T02:10:36.853Z,28.90
2022-09-05T02:13:28.190Z,28.90
2022-09-05T02:16:25.553Z,28.90
2022-09-05T02:19:01.245Z,28.90
2022-09-05T02:21:36.694Z,28.90
2022-09-05T02:24:44.317Z,28.90
2022-09-05T02:27:30.247Z,28.90
2022-09-05T02:30:16.697Z,28.90
2022-09-05T02:33:14.070Z,28.90
2022-09-05T02:36:11.982Z,28.90
2022-09-05T02:43:19.370Z,28.90
2022-09-05T02:45:20.203Z,28.90
2022-09-05T02:45:34.828Z,28.90
2022-09-05T02:48:15.629Z,28.90
2022-09-05T02:54:10.913Z,28.90
2022-09-05T02:57:36.530Z,28.90
2022-09-05T02:57:41.752Z,28.90
2022-09-05T03:00:27.633Z,28.90
2022-09-05T03:03:14.663Z,28.90
2022-09-05T03:05:55.326Z,28.90
2022-09-05T03:08:40.946Z,28.90
2022-09-05T03:11:44.814Z,28.90
2022-09-05T03:14:41.973Z,28.90
2022-09-05T03:17:37.717Z,28.90
2022-09-05T03:20:22.607Z,28.90
2022-09-05T03:23:35.592Z,28.90
2022-09-05T03:26:29.096Z,28.90
2022-09-05T03:29:12.476Z,28.90
2022-09-05T03:31:58.849Z,28.90
2022-09-05T03:34:48.869Z,28.90
2022-09-05T03:37:53.629Z,28.90
2022-09-05T03:40:35.734Z,28.90
2022-09-05T03:43:33.575Z,28.90
2022-09-05T03:46:02.510Z,28.90
2022-09-05T03:48:41.309Z,28.90
2022-09-05T03:57:06.232Z,28.80
2022-09-05T03:57:28.163Z,28.90
2022-09-05T03:58:10.432Z,28.90
2022-09-05T04:01:11.103Z,28.90
2022-09-05T04:08:19.485Z,28.90
2022-09-05T04:08:19.743Z,28.90
2022-09-05T04:09:51.181Z,28.90
2022-09-05T04:12:46.801Z,28.90
2022-09-05T04:15:43.185Z,28.90
2022-09-05T04:18:33.657Z,28.90
2022-09-05T04:21:10.188Z,28.90
2022-09-05T04:23:42.397Z,28.90
2022-09-05T04:26:43.594Z,28.90
2022-09-05T04:29:34.939Z,28.90
2022-09-05T04:32:26.122Z,28.90
2022-09-05T04:35:30.242Z,28.90
2022-09-05T04:38:05.490Z,28.90
2022-09-05T04:40:38.583Z,28.90
2022-09-05T04:43:13.239Z,28.90
2022-09-05T04:45:48.082Z,28.90
2022-09-05T04:48:21.556Z,28.90
2022-09-05T04:51:02.601Z,28.90
2022-09-05T04:53:43.681Z,28.90
2022-09-05T04:56:19.291Z,28.90
2022-09-05T05:01:06.906Z,28.90
2022-09-05T05:06:01.308Z,28.90
2022-09-05T05:06:18.912Z,28.90
2022-09-05T05:07:48.545Z,28.80
2022-09-05T05:11:59.106Z,28.80
2022-09-05T05:17:57.651Z,28.80
2022-09-05T05:18:16.251Z,28.80
2022-09-05T05:19:33.012Z,28.80
2022-09-05T05:22:03.643Z,28.80
2022-09-05T05:24:33.979Z,28.80
2022-09-05T05:27:15.603Z,28.70
2022-09-05T05:29:51.146Z,28.80
2022-09-05T05:32:34.592Z,28.80
2022-09-05T05:35:23.388Z,28.80
2022-09-05T05:37:56.801Z,28.70
2022-09-05T05:40:27.382Z,28.70
2022-09-05T05:43:16.771Z,28.70
2022-09-05T05:45:43.208Z,28.70
2022-09-05T05:48:18.378Z,28.70
2022-09-05T05:51:36.435Z,28.70
2022-09-05T05:54:28.289Z,28.70
2022-09-05T05:57:26.289Z,28.70
2022-09-05T06:00:27.608Z,28.70
2022-09-05T06:03:26.467Z,28.70
2022-09-05T06:05:53.469Z,28.70
2022-09-05T06:14:50.463Z,28.70
2022-09-05T06:14:58.871Z,28.70
2022-09-05T06:15:31.096Z,28.60
2022-09-05T06:18:20.779Z,28.60
2022-09-05T06:22:11.352Z,28.60
2022-09-05T06:23:57.520Z,28.60
2022-09-05T06:26:51.345Z,28.60
2022-09-05T06:29:47.065Z,28.60
2022-09-05T06:32:31.337Z,28.60
2022-09-05T06:35:26.937Z,28.60
2022-09-05T06:38:47.326Z,28.60
2022-09-05T06:41:22.807Z,28.60
2022-09-05T06:44:30.630Z,28.60
2022-09-05T06:47:22.888Z,28.60
2022-09-05T06:50:27.192Z,28.60
2022-09-05T06:53:39.295Z,28.60
2022-09-05T06:56:31.919Z,28.50
2022-09-05T06:59:19.687Z,28.50
2022-09-05T07:02:00.859Z,28.50
2022-09-05T07:05:23.164Z,28.50
2022-09-05T07:07:51.732Z,28.50
2022-09-05T07:10:38.922Z,28.50
2022-09-05T07:13:30.299Z,28.50
2022-09-05T07:16:11.303Z,28.50
2022-09-05T07:19:04.545Z,28.50
2022-09-05T07:21:37.389Z,28.40
2022-09-05T07:24:10.001Z,28.40
2022-09-05T07:26:53.907Z,28.40
2022-09-05T07:29:27.847Z,28.40
2022-09-05T07:31:55.482Z,28.40
2022-09-05T07:34:27.743Z,28.40
2022-09-05T07:37:13.857Z,28.40
2022-09-05T07:39:53.379Z,28.40
2022-09-05T07:42:37.669Z,28.40
2022-09-05T07:45:10.289Z,28.40
2022-09-05T07:47:43.815Z,28.40
2022-09-05T07:50:12.706Z,28.50
2022-09-05T07:57:04.126Z,28.50
2022-09-05T07:57:08.984Z,28.50
2022-09-05T07:58:53.278Z,28.50
2022-09-05T08:01:21.845Z,28.50
2022-09-05T08:03:55.301Z,28.50
2022-09-05T08:06:41.488Z,28.50
2022-09-05T08:10:06.394Z,28.50
2022-09-05T08:13:23.773Z,28.50
2022-09-05T08:16:09.721Z,28.50
2022-09-05T08:19:11.621Z,28.50
2022-09-05T08:21:59.492Z,28.50
2022-09-05T08:24:36.135Z,28.50
2022-09-05T08:27:19.604Z,28.50
2022-09-05T08:30:26.034Z,28.50
2022-09-05T08:33:11.366Z,28.50
2022-09-05T08:36:01.301Z,28.50
2022-09-05T08:38:34.506Z,28.40
2022-09-05T08:41:52.275Z,28.50
2022-09-05T08:46:43.266Z,28.40
2022-09-05T08:48:08.265Z,28.50
2022-09-05T08:51:04.228Z,28.50
2022-09-05T08:53:47.219Z,28.40
2022-09-05T08:56:30.197Z,28.40
2022-09-05T08:59:28.349Z,28.40
2022-09-05T09:02:46.221Z,28.40
2022-09-05T09:05:07.184Z,28.30
2022-09-05T09:07:53.020Z,28.30
2022-09-05T09:10:46.152Z,28.30
2022-09-05T09:13:24.426Z,28.30
2022-09-05T09:16:08.638Z,28.30
2022-09-05T09:18:44.198Z,28.30
2022-09-05T09:21:40.073Z,28.30
2022-09-05T09:24:36.517Z,28.30
2022-09-05T09:27:16.430Z,28.30
2022-09-05T09:29:53.211Z,28.30
2022-09-05T09:32:26.187Z,28.30
2022-09-05T09:35:11.210Z,28.20
2022-09-05T09:37:59.377Z,28.20
2022-09-05T09:41:00.814Z,28.20
2022-09-05T09:43:52.569Z,28.20
2022-09-05T09:46:41.528Z,28.20
2022-09-05T09:49:36.078Z,28.20
2022-09-05T09:52:53.615Z,28.20
2022-09-05T09:56:10.179Z,28.20
2022-09-05T09:58:55.131Z,28.20
2022-09-05T10:01:53.786Z,28.20
2022-09-05T10:10:35.580Z,28.20
2022-09-05T10:10:54.221Z,28.20
2022-09-05T10:11:41.328Z,28.20
2022-09-05T10:13:59.815Z,28.20
2022-09-05T10:16:25.970Z,28.20
2022-09-05T10:22:36.545Z,28.20
2022-09-05T10:25:22.180Z,28.20
2022-09-05T10:28:04.606Z,28.20
2022-09-05T10:32:50.619Z,28.20
2022-09-05T10:35:14.464Z,28.20
2022-09-05T10:36:52.319Z,28.20
2022-09-05T10:39:21.480Z,28.20
2022-09-05T10:42:03.302Z,28.20
2022-09-05T10:44:52.651Z,28.20
2022-09-05T10:47:30.650Z,28.20
2022-09-05T10:50:25.441Z,28.20
2022-09-05T10:53:15.845Z,28.20
2022-09-05T10:56:08.398Z,28.20
2022-09-05T11:01:37.534Z,28.20
2022-09-05T11:02:31.337Z,28.20
2022-09-05T11:05:16.923Z,28.20
2022-09-05T11:08:12.436Z,28.20
2022-09-05T11:11:26.143Z,28.20
2022-09-05T11:14:06.704Z,28.20
2022-09-05T11:16:50.178Z,28.20
2022-09-05T11:19:40.163Z,28.20
2022-09-05T11:22:22.449Z,28.20
2022-09-05T11:24:55.204Z,28.20
2022-09-05T11:27:24.931Z,28.20
2022-09-05T11:30:06.630Z,28.20
2022-09-05T11:40:00.057Z,28.20
2022-09-05T11:40:02.599Z,28.20
2022-09-05T11:40:04.116Z,28.20
2022-09-05T11:41:45.759Z,28.20
2022-09-05T11:44:27.004Z,28.20
2022-09-05T11:46:56.543Z,28.20
2022-09-05T11:50:26.075Z,28.20
2022-09-05T11:53:12.890Z,28.20
2022-09-05T11:56:00.455Z,28.20
2022-09-05T11:58:45.884Z,28.20
2022-09-05T12:01:42.259Z,28.20
2022-09-05T12:04:28.510Z,28.20
2022-09-05T12:07:36.658Z,28.20
2022-09-05T12:10:46.412Z,28.20
2022-09-05T12:13:41.858Z,28.20
2022-09-05T12:16:35.535Z,28.20
2022-09-05T12:19:54.837Z,28.20
2022-09-05T12:22:38.373Z,28.20
2022-09-05T12:25:25.203Z,28.20
2022-09-05T12:29:27.408Z,28.20
2022-09-05T12:32:30.541Z,28.20
2022-09-05T12:40:25.419Z,28.20
2022-09-05T12:41:37.512Z,28.20
2022-09-05T12:41:42.270Z,28.20
2022-09-05T12:43:23.730Z,28.20
2022-09-05T12:45:50.226Z,28.20
2022-09-05T12:48:38.484Z,28.20
2022-09-05T12:51:45.839Z,28.20
2022-09-05T12:54:26.252Z,28.20
2022-09-05T13:00:29.010Z,28.20
2022-09-05T13:03:03.808Z,28.20
2022-09-05T13:03:26.846Z,28.20
2022-09-05T13:06:02.262Z,28.20
2022-09-05T13:08:47.171Z,28.20
2022-09-05T13:14:46.802Z,28.20
2022-09-05T13:15:12.524Z,28.20
2022-09-05T13:18:03.366Z,28.20
2022-09-05T13:20:36.122Z,28.20
2022-09-05T13:23:25.464Z,28.20
2022-09-05T13:26:07.392Z,28.20
2022-09-05T13:29:10.616Z,28.20
2022-09-05T13:38:03.338Z,28.20
2022-09-05T13:38:07.410Z,28.20
2022-09-05T13:38:20.015Z,28.20
2022-09-05T13:40:27.886Z,28.20
2022-09-05T13:43:06.124Z,28.20
2022-09-05T13:45:45.164Z,28.20
2022-09-05T13:48:27.860Z,28.20
2022-09-05T13:51:02.090Z,28.20
2022-09-05T13:53:51.093Z,28.20
2022-09-05T13:56:27.175Z,28.20
2022-09-05T13:59:10.225Z,28.20
2022-09-05T14:02:19.949Z,28.20
2022-09-05T14:05:08.171Z,28.20
2022-09-05T14:08:08.671Z,28.20
2022-09-05T14:10:56.370Z,28.20
2022-09-05T14:13:32.478Z,28.20
2022-09-05T14:16:11.035Z,28.20
2022-09-05T14:19:04.124Z,28.20
2022-09-05T14:21:36.692Z,28.20
2022-09-05T14:24:27.825Z,28.20
2022-09-05T14:27:11.258Z,28.20
2022-09-05T14:29:52.250Z,28.20
2022-09-05T14:37:36.186Z,28.20
2022-09-05T14:37:44.463Z,28.20
2022-09-05T14:38:18.785Z,28.20
2022-09-05T14:41:23.348Z,28.20
2022-09-05T14:43:58.331Z,28.20
2022-09-05T14:46:47.359Z,28.20
2022-09-05T14:49:40.334Z,28.20
2022-09-05T14:52:23.862Z,28.20
2022-09-05T15:02:44.773Z,28.20
2022-09-05T15:02:52.182Z,28.20
2022-09-05T15:06:33.303Z,28.20
2022-09-05T15:11:23.946Z,28.20
2022-09-05T15:12:26.122Z,28.20
2022-09-05T15:14:35.556Z,28.20
2022-09-05T15:17:04.629Z,28.20
2022-09-05T15:20:04.974Z,28.20
2022-09-05T15:22:43.422Z,28.20
2022-09-05T15:25:18.372Z,28.20
2022-09-05T15:27:45.639Z,28.20
2022-09-05T15:30:35.029Z,28.20
2022-09-05T15:33:13.942Z,28.20
2022-09-05T15:35:43.195Z,28.20
2022-09-05T15:38:29.387Z,28.20
2022-09-05T15:41:08.662Z,28.20
2022-09-05T15:44:04.116Z,28.20
2022-09-05T15:46:59.004Z,28.20
2022-09-05T15:49:47.991Z,28.20
2022-09-05T15:52:17.185Z,28.20
2022-09-05T15:54:52.742Z,28.20
2022-09-05T15:57:23.745Z,28.20
2022-09-05T15:59:56.627Z,28.20
2022-09-05T16:02:38.502Z,28.20
2022-09-05T16:10:34.419Z,28.20
2022-09-05T16:10:42.216Z,28.20
2022-09-05T16:13:51.945Z,28.20
2022-09-05T16:22:49.754Z,28.20
2022-09-05T16:23:26.021Z,28.20
2022-09-05T16:23:32.499Z,28.20
2022-09-05T16:24:58.995Z,28.20
2022-09-05T16:28:13.605Z,28.20
2022-09-05T16:30:40.202Z,28.20
2022-09-05T16:33:24.753Z,28.20
2022-09-05T16:35:54.926Z,28.20
2022-09-05T16:38:49.275Z,28.20
2022-09-05T16:41:54.865Z,28.20
2022-09-05T16:44:42.165Z,28.20
2022-09-05T16:47:21.651Z,28.20
2022-09-05T16:50:17.620Z,28.20
2022-09-05T16:52:54.156Z,28.20
2022-09-05T16:55:35.321Z,28.20
2022-09-05T16:58:16.181Z,28.20
2022-09-05T17:01:09.826Z,28.20
2022-09-05T17:03:57.197Z,28.20
2022-09-05T17:06:39.696Z,28.20
2022-09-05T17:09:21.614Z,28.20
2022-09-05T17:12:01.221Z,28.30
2022-09-05T17:14:38.733Z,28.30
2022-09-05T17:18:20.826Z,28.30
2022-09-05T17:20:15.980Z,28.30
2022-09-05T17:29:12.990Z,28.40
2022-09-05T17:29:24.040Z,28.40
2022-09-05T17:29:32.867Z,28.40
2022-09-05T17:31:54.982Z,28.40
2022-09-05T17:34:48.823Z,28.40
2022-09-05T17:37:20.707Z,28.40
2022-09-05T17:40:18.717Z,28.40
2022-09-05T17:42:52.599Z,28.50
2022-09-05T17:45:34.631Z,28.50
2022-09-05T17:48:01.035Z,28.50
2022-09-05T17:50:28.063Z,28.50
2022-09-05T17:53:25.705Z,28.50
2022-09-05T17:55:50.942Z,28.60
2022-09-05T17:58:26.112Z,28.50
2022-09-05T18:00:59.672Z,28.50
2022-09-05T18:03:37.784Z,28.60
2022-09-05T18:06:32.257Z,28.50
2022-09-05T18:09:08.559Z,28.60
2022-09-05T18:11:39.321Z,28.60
2022-09-05T18:14:24.483Z,28.60
2022-09-05T18:17:35.510Z,28.60
2022-09-05T18:22:35.450Z,28.60
2022-09-05T18:25:28.675Z,28.60
2022-09-05T18:28:13.312Z,28.60
2022-09-05T18:30:39.514Z,28.50
2022-09-05T18:33:55.809Z,28.60
2022-09-05T18:36:25.713Z,28.60
2022-09-05T18:39:22.464Z,28.60
2022-09-05T18:42:34.382Z,28.60
2022-09-05T18:44:59.726Z,28.60
2022-09-05T18:47:53.322Z,28.70
2022-09-05T18:50:28.418Z,28.60
2022-09-05T18:53:09.447Z,28.60
2022-09-05T18:56:13.087Z,28.60
2022-09-05T18:58:31.216Z,28.60
2022-09-05T19:01:41.379Z,28.60
2022-09-05T19:04:41.451Z,28.60
2022-09-05T19:07:11.114Z,28.60
2022-09-05T19:09:41.129Z,28.60
2022-09-05T19:12:32.896Z,28.60
2022-09-05T19:15:25.403Z,28.60
2022-09-05T19:18:36.853Z,28.70
2022-09-05T19:21:12.298Z,28.70
2022-09-05T19:23:55.028Z,28.70
2022-09-05T19:26:22.657Z,28.70
2022-09-05T19:36:57.822Z,28.60
2022-09-05T19:37:02.955Z,28.60
2022-09-05T19:37:04.774Z,28.70
2022-09-05T19:37:47.230Z,28.70
2022-09-05T19:47:25.377Z,28.70
2022-09-05T19:47:40.056Z,28.60
2022-09-05T19:47:47.840Z,28.70
2022-09-05T19:49:12.878Z,28.60
2022-09-05T19:51:40.589Z,28.60
2022-09-05T19:54:07.830Z,28.70
2022-09-05T19:56:43.957Z,28.70
2022-09-05T19:59:33.907Z,28.70
2022-09-05T20:02:01.707Z,28.70
2022-09-05T20:04:37.217Z,28.70
2022-09-05T20:07:19.893Z,28.70
2022-09-05T20:09:48.454Z,28.70
2022-09-05T20:12:24.108Z,28.70
2022-09-05T20:14:50.797Z,28.70
2022-09-05T20:17:30.443Z,28.70
2022-09-05T20:20:11.729Z,28.70
2022-09-05T20:22:48.955Z,28.70
2022-09-05T20:25:41.861Z,28.70
2022-09-05T20:28:11.188Z,28.70
2022-09-05T20:30:45.300Z,28.70
2022-09-05T20:33:33.397Z,28.70
2022-09-05T20:39:11.209Z,28.70
2022-09-05T20:42:47.117Z,28.70
2022-09-05T20:43:29.814Z,28.70
2022-09-05T20:44:49.833Z,28.70
2022-09-05T20:51:17.019Z,28.70
2022-09-05T20:54:15.239Z,28.70
2022-09-05T20:54:21.962Z,28.70
2022-09-05T20:56:09.281Z,28.70
2022-09-05T20:58:38.086Z,28.70
2022-09-05T21:01:20.906Z,28.70
2022-09-05T21:03:57.204Z,28.70
2022-09-05T21:06:34.136Z,28.70
2022-09-05T21:09:25.159Z,28.70
2022-09-05T21:11:54.971Z,28.80
2022-09-05T21:14:22.990Z,28.70
2022-09-05T21:16:59.099Z,28.70
2022-09-05T21:19:29.456Z,28.70
2022-09-05T21:22:20.903Z,28.70
2022-09-05T21:24:47.816Z,28.80
2022-09-05T21:27:24.165Z,28.70
2022-09-05T21:29:57.835Z,28.80
2022-09-05T21:32:36.150Z,28.70
2022-09-05T21:35:15.450Z,28.70
2022-09-05T21:37:55.908Z,28.70
2022-09-05T21:40:22.121Z,28.70
2022-09-05T21:47:44.954Z,28.70
2022-09-05T21:47:50.093Z,28.70
2022-09-05T21:48:21.799Z,28.70
2022-09-05T21:50:50.735Z,28.70
2022-09-05T21:54:46.023Z,28.70
2022-09-05T21:59:24.589Z,28.70
2022-09-05T21:59:36.891Z,28.80
2022-09-05T22:02:07.812Z,28.70
2022-09-05T22:04:41.113Z,28.80
2022-09-05T22:07:12.121Z,28.80
2022-09-05T22:09:38.201Z,28.80
2022-09-05T22:12:12.024Z,28.70
2022-09-05T22:14:50.480Z,28.80
2022-09-05T22:17:19.630Z,28.70
2022-09-05T22:19:46.051Z,28.80
2022-09-05T22:22:17.221Z,28.80
2022-09-05T22:24:55.736Z,28.70
2022-09-05T22:27:24.593Z,28.80
2022-09-05T22:29:51.495Z,28.80
2022-09-05T22:32:34.726Z,28.70
2022-09-05T22:35:27.653Z,28.70
2022-09-05T22:37:59.800Z,28.70
2022-09-05T22:40:28.280Z,28.80
2022-09-05T22:42:56.138Z,28.80
2022-09-05T22:45:22.245Z,28.80
2022-09-05T22:47:48.469Z,28.80
2022-09-05T22:50:16.640Z,28.80
2022-09-05T22:52:42.769Z,28.70
2022-09-05T22:55:09.132Z,28.80
2022-09-05T22:57:37.173Z,28.80
2022-09-05T23:00:04.434Z,28.80
2022-09-05T23:02:30.515Z,28.80
2022-09-05T23:04:56.659Z,28.80
2022-09-05T23:07:23.179Z,28.80
2022-09-05T23:09:49.340Z,28.80
2022-09-05T23:12:15.439Z,28.80
2022-09-05T23:14:41.517Z,28.80
2022-09-05T23:17:07.693Z,28.80
2022-09-05T23:19:33.860Z,28.80
2022-09-05T23:21:59.953Z,28.80
2022-09-05T23:24:26.082Z,28.80
2022-09-05T23:26:52.246Z,28.80
2022-09-05T23:29:18.349Z,28.80
2022-09-05T23:31:44.509Z,28.80
2022-09-05T23:34:10.586Z,28.80
2022-09-05T23:36:36.682Z,28.80
2022-09-05T23:39:02.863Z,28.80
2022-09-05T23:41:28.958Z,28.80
2022-09-05T23:43:56.225Z,28.80
2022-09-05T23:46:22.454Z,28.80
2022-09-05T23:48:48.597Z,28.80
2022-09-05T23:51:14.888Z,28.80
2022-09-05T23:53:41.333Z,28.80
2022-09-05T23:56:08.834Z,28.80
2022-09-05T23:58:35.846Z,28.80
